Airfield :
LOGIN :

Register | Disclaimer

   EN    FR    IT 

 










Legend :    VFR   Marginal VFR   IFR   Intensive IFR   Very Intensive IFR
Visi :
Ceiling :
>= 8 km
>= 3000ft
5 to 8 km
1000 to 3000 ft
1500m to 5 km
500 to 1000 ft
800 to 1500m
200 to 500 ft
< 800m
< 200 ft
Symbols :   Thunderstorms  Fog  Heavy snow  Heavy precipitations  Wind > 20 kt
SIGMETs :     Misc.  Thunderstorms  Icing  Turbulence  Mountain Waves  Volcanic Ashes






- Airport Elevation : 157 ft
- IATA code : SXF


EDDB - Berlin Schönefeld

CURRENT METAR :
  • 080950Z 13007KT 090V170 CAVOK 18/06 Q1028 NOSIG

EXPIRED METARs :
  • 080920Z 12007KT CAVOK 16/05 Q1029 NOSIG
  • 080850Z 13006KT 100V160 CAVOK 15/05 Q1029 NOSIG
  • 080820Z 11006KT 070V130 CAVOK 14/04 Q1029 NOSIG
  • 080750Z 12008KT 090V150 CAVOK 13/03 Q1030 NOSIG
  • 080720Z 10009KT CAVOK 12/03 Q1030 NOSIG

TAF TAF EDDB
Valid from the 08 at 06:00 until the 09 at 06:00 UTC


080500Z 0806/0906 09008KT CAVOK
BECMG 0813/0816 18006KT
BECMG 0816/0819 VRB03KT



MET'MAP, your aeronautical weather chart ! - Copyright ORBIFLY December 2007 - Disclaimer

ORBIFLY MET'MAP TEAM :

Programming & Development : Alexandra Zaïnal
Concept & original design : Baudouin d'Aumeries
Assistance for programming : Marc-Olivier Méhu
Technical & hardware support : Manuel Goepfert

Contact : metmap@orbifly.com




SOURCES & CREDITS :

   NOAA